sensor_id;sensor_type;location;lat;lon;timestamp;P1;durP1;ratioP1;P2;durP2;ratioP2
27794;SDS011;15176;50.844;4.412;2023-02-18T00:02:02;19.83;;;11.27;;
27794;SDS011;15176;50.844;4.412;2023-02-18T00:04:28;23.88;;;12.15;;
27794;SDS011;15176;50.844;4.412;2023-02-18T00:06:54;19.38;;;11.02;;
27794;SDS011;15176;50.844;4.412;2023-02-18T00:09:20;17.67;;;10.80;;
27794;SDS011;15176;50.844;4.412;2023-02-18T00:11:46;20.77;;;10.52;;
27794;SDS011;15176;50.844;4.412;2023-02-18T00:14:12;21.83;;;10.77;;
27794;SDS011;15176;50.844;4.412;2023-02-18T00:16:39;17.88;;;10.80;;
27794;SDS011;15176;50.844;4.412;2023-02-18T00:19:07;21.08;;;10.23;;
27794;SDS011;15176;50.844;4.412;2023-02-18T00:21:35;17.70;;;9.98;;
27794;SDS011;15176;50.844;4.412;2023-02-18T00:24:06;17.45;;;9.30;;
27794;SDS011;15176;50.844;4.412;2023-02-18T00:26:32;18.05;;;9.73;;
27794;SDS011;15176;50.844;4.412;2023-02-18T00:28:59;15.98;;;8.82;;
27794;SDS011;15176;50.844;4.412;2023-02-18T00:31:26;16.27;;;9.00;;
27794;SDS011;15176;50.844;4.412;2023-02-18T00:33:53;16.23;;;8.80;;
27794;SDS011;15176;50.844;4.412;2023-02-18T00:36:22;14.63;;;8.52;;
27794;SDS011;15176;50.844;4.412;2023-02-18T00:38:49;17.13;;;8.07;;
27794;SDS011;15176;50.844;4.412;2023-02-18T00:41:17;16.85;;;8.52;;
27794;SDS011;15176;50.844;4.412;2023-02-18T00:43:43;13.60;;;7.90;;
27794;SDS011;15176;50.844;4.412;2023-02-18T00:46:09;16.50;;;8.20;;
27794;SDS011;15176;50.844;4.412;2023-02-18T00:48:36;14.32;;;8.10;;
27794;SDS011;15176;50.844;4.412;2023-02-18T00:51:03;14.35;;;7.35;;
27794;SDS011;15176;50.844;4.412;2023-02-18T00:53:30;13.70;;;7.18;;
27794;SDS011;15176;50.844;4.412;2023-02-18T00:55:55;13.63;;;7.53;;
27794;SDS011;15176;50.844;4.412;2023-02-18T00:58:21;13.82;;;7.50;;
27794;SDS011;15176;50.844;4.412;2023-02-18T01:00:48;12.52;;;7.22;;
27794;SDS011;15176;50.844;4.412;2023-02-18T01:03:14;11.25;;;6.40;;
27794;SDS011;15176;50.844;4.412;2023-02-18T01:05:40;11.20;;;6.25;;
27794;SDS011;15176;50.844;4.412;2023-02-18T01:08:06;9.57;;;5.47;;
27794;SDS011;15176;50.844;4.412;2023-02-18T01:10:33;9.02;;;5.32;;
27794;SDS011;15176;50.844;4.412;2023-02-18T01:13:00;9.57;;;5.43;;
27794;SDS011;15176;50.844;4.412;2023-02-18T01:15:28;8.25;;;5.10;;
27794;SDS011;15176;50.844;4.412;2023-02-18T01:17:54;9.73;;;4.65;;
27794;SDS011;15176;50.844;4.412;2023-02-18T01:20:20;8.05;;;4.35;;
27794;SDS011;15176;50.844;4.412;2023-02-18T01:22:46;7.88;;;3.95;;
27794;SDS011;15176;50.844;4.412;2023-02-18T01:25:12;8.20;;;3.95;;
27794;SDS011;15176;50.844;4.412;2023-02-18T01:27:39;6.78;;;3.75;;
27794;SDS011;15176;50.844;4.412;2023-02-18T01:30:05;6.00;;;3.50;;
27794;SDS011;15176;50.844;4.412;2023-02-18T01:32:32;5.55;;;3.38;;
27794;SDS011;15176;50.844;4.412;2023-02-18T01:35:01;5.47;;;3.20;;
27794;SDS011;15176;50.844;4.412;2023-02-18T01:37:29;6.25;;;2.90;;
27794;SDS011;15176;50.844;4.412;2023-02-18T01:39:55;4.47;;;2.42;;
27794;SDS011;15176;50.844;4.412;2023-02-18T01:42:21;4.25;;;2.22;;
27794;SDS011;15176;50.844;4.412;2023-02-18T01:44:49;5.78;;;2.80;;
27794;SDS011;15176;50.844;4.412;2023-02-18T01:47:15;4.10;;;2.35;;
27794;SDS011;15176;50.844;4.412;2023-02-18T01:49:42;4.50;;;2.38;;
27794;SDS011;15176;50.844;4.412;2023-02-18T01:52:13;4.10;;;1.90;;
27794;SDS011;15176;50.844;4.412;2023-02-18T01:54:42;3.70;;;2.08;;
27794;SDS011;15176;50.844;4.412;2023-02-18T01:57:12;3.72;;;1.98;;
27794;SDS011;15176;50.844;4.412;2023-02-18T01:59:49;3.40;;;1.83;;
27794;SDS011;15176;50.844;4.412;2023-02-18T02:02:19;3.50;;;1.85;;
27794;SDS011;15176;50.844;4.412;2023-02-18T02:04:48;3.85;;;1.88;;
27794;SDS011;15176;50.844;4.412;2023-02-18T02:07:14;3.40;;;1.92;;
27794;SDS011;15176;50.844;4.412;2023-02-18T02:09:42;3.80;;;1.90;;
27794;SDS011;15176;50.844;4.412;2023-02-18T02:34:38;3.40;;;1.83;;
27794;SDS011;15176;50.844;4.412;2023-02-18T02:37:43;3.17;;;1.67;;
27794;SDS011;15176;50.844;4.412;2023-02-18T02:43:30;3.05;;;1.60;;
27794;SDS011;15176;50.844;4.412;2023-02-18T02:46:10;3.83;;;1.50;;
27794;SDS011;15176;50.844;4.412;2023-02-18T02:48:57;3.63;;;1.90;;
27794;SDS011;15176;50.844;4.412;2023-02-18T02:54:35;3.72;;;1.90;;
27794;SDS011;15176;50.844;4.412;2023-02-18T02:57:06;3.40;;;1.80;;
27794;SDS011;15176;50.844;4.412;2023-02-18T02:59:32;4.63;;;2.20;;
27794;SDS011;15176;50.844;4.412;2023-02-18T03:02:06;3.90;;;2.05;;
27794;SDS011;15176;50.844;4.412;2023-02-18T03:10:42;4.78;;;2.83;;
27794;SDS011;15176;50.844;4.412;2023-02-18T03:16:25;4.65;;;2.75;;
27794;SDS011;15176;50.844;4.412;2023-02-18T03:22:02;5.03;;;2.83;;
27794;SDS011;15176;50.844;4.412;2023-02-18T03:24:31;4.80;;;2.80;;
27794;SDS011;15176;50.844;4.412;2023-02-18T03:30:02;5.68;;;2.85;;
27794;SDS011;15176;50.844;4.412;2023-02-18T03:32:39;5.22;;;3.00;;
27794;SDS011;15176;50.844;4.412;2023-02-18T03:35:08;5.25;;;2.97;;
27794;SDS011;15176;50.844;4.412;2023-02-18T03:37:47;5.05;;;2.70;;
27794;SDS011;15176;50.844;4.412;2023-02-18T03:40:29;5.32;;;3.00;;
27794;SDS011;15176;50.844;4.412;2023-02-18T03:42:56;5.10;;;2.80;;
27794;SDS011;15176;50.844;4.412;2023-02-18T03:45:23;5.30;;;2.88;;
27794;SDS011;15176;50.844;4.412;2023-02-18T03:47:49;4.45;;;2.58;;
27794;SDS011;15176;50.844;4.412;2023-02-18T03:50:15;4.65;;;2.90;;
27794;SDS011;15176;50.844;4.412;2023-02-18T03:52:41;4.60;;;2.58;;
27794;SDS011;15176;50.844;4.412;2023-02-18T03:55:07;5.55;;;2.97;;
27794;SDS011;15176;50.844;4.412;2023-02-18T03:57:33;6.30;;;3.63;;
27794;SDS011;15176;50.844;4.412;2023-02-18T03:59:59;5.70;;;3.28;;
27794;SDS011;15176;50.844;4.412;2023-02-18T04:02:25;4.47;;;2.45;;
27794;SDS011;15176;50.844;4.412;2023-02-18T04:04:51;5.07;;;2.90;;
27794;SDS011;15176;50.844;4.412;2023-02-18T04:07:17;4.55;;;2.65;;
27794;SDS011;15176;50.844;4.412;2023-02-18T04:09:43;4.40;;;2.60;;
27794;SDS011;15176;50.844;4.412;2023-02-18T04:12:08;4.57;;;2.60;;
27794;SDS011;15176;50.844;4.412;2023-02-18T04:14:34;4.70;;;2.72;;
27794;SDS011;15176;50.844;4.412;2023-02-18T04:17:00;4.47;;;2.58;;
27794;SDS011;15176;50.844;4.412;2023-02-18T04:19:26;5.50;;;3.00;;
27794;SDS011;15176;50.844;4.412;2023-02-18T04:21:52;4.90;;;2.88;;
27794;SDS011;15176;50.844;4.412;2023-02-18T04:24:17;6.28;;;3.05;;
27794;SDS011;15176;50.844;4.412;2023-02-18T04:26:43;4.95;;;3.03;;
27794;SDS011;15176;50.844;4.412;2023-02-18T04:29:09;7.75;;;3.20;;
27794;SDS011;15176;50.844;4.412;2023-02-18T04:31:34;5.32;;;3.13;;
27794;SDS011;15176;50.844;4.412;2023-02-18T04:34:00;4.45;;;2.60;;
27794;SDS011;15176;50.844;4.412;2023-02-18T04:36:26;5.10;;;2.97;;
27794;SDS011;15176;50.844;4.412;2023-02-18T04:38:52;4.28;;;2.55;;
27794;SDS011;15176;50.844;4.412;2023-02-18T04:41:17;3.97;;;2.35;;
27794;SDS011;15176;50.844;4.412;2023-02-18T04:43:43;4.65;;;2.75;;
27794;SDS011;15176;50.844;4.412;2023-02-18T04:46:09;3.97;;;2.35;;
27794;SDS011;15176;50.844;4.412;2023-02-18T04:48:34;6.07;;;2.63;;
27794;SDS011;15176;50.844;4.412;2023-02-18T04:51:01;5.53;;;2.80;;
27794;SDS011;15176;50.844;4.412;2023-02-18T04:53:27;4.57;;;2.38;;
27794;SDS011;15176;50.844;4.412;2023-02-18T04:55:52;5.38;;;2.85;;
27794;SDS011;15176;50.844;4.412;2023-02-18T04:58:18;5.38;;;2.70;;
27794;SDS011;15176;50.844;4.412;2023-02-18T05:00:44;4.40;;;2.60;;
27794;SDS011;15176;50.844;4.412;2023-02-18T05:03:10;4.38;;;2.38;;
27794;SDS011;15176;50.844;4.412;2023-02-18T05:05:36;4.70;;;2.70;;
27794;SDS011;15176;50.844;4.412;2023-02-18T05:08:02;4.40;;;2.55;;
27794;SDS011;15176;50.844;4.412;2023-02-18T05:10:28;4.47;;;2.38;;
27794;SDS011;15176;50.844;4.412;2023-02-18T05:12:54;4.90;;;2.55;;
27794;SDS011;15176;50.844;4.412;2023-02-18T05:15:19;3.78;;;2.13;;
27794;SDS011;15176;50.844;4.412;2023-02-18T05:17:45;3.88;;;2.15;;
27794;SDS011;15176;50.844;4.412;2023-02-18T05:20:11;4.18;;;2.47;;
27794;SDS011;15176;50.844;4.412;2023-02-18T05:22:37;4.03;;;2.10;;
27794;SDS011;15176;50.844;4.412;2023-02-18T05:25:04;4.78;;;1.85;;
27794;SDS011;15176;50.844;4.412;2023-02-18T05:27:30;3.38;;;1.63;;
27794;SDS011;15176;50.844;4.412;2023-02-18T05:29:55;3.80;;;1.85;;
27794;SDS011;15176;50.844;4.412;2023-02-18T05:32:21;3.92;;;1.83;;
27794;SDS011;15176;50.844;4.412;2023-02-18T05:34:47;4.47;;;1.65;;
27794;SDS011;15176;50.844;4.412;2023-02-18T05:37:13;4.00;;;1.40;;
27794;SDS011;15176;50.844;4.412;2023-02-18T05:39:39;5.22;;;1.95;;
27794;SDS011;15176;50.844;4.412;2023-02-18T05:42:05;3.90;;;1.77;;
27794;SDS011;15176;50.844;4.412;2023-02-18T05:44:31;4.38;;;1.80;;
27794;SDS011;15176;50.844;4.412;2023-02-18T05:46:59;5.15;;;2.05;;
27794;SDS011;15176;50.844;4.412;2023-02-18T05:49:27;9.23;;;2.72;;
27794;SDS011;15176;50.844;4.412;2023-02-18T05:51:54;6.40;;;2.75;;
27794;SDS011;15176;50.844;4.412;2023-02-18T05:54:20;8.32;;;2.72;;
27794;SDS011;15176;50.844;4.412;2023-02-18T05:56:46;9.13;;;2.88;;
27794;SDS011;15176;50.844;4.412;2023-02-18T05:59:12;7.47;;;2.67;;
27794;SDS011;15176;50.844;4.412;2023-02-18T06:01:38;10.27;;;2.95;;
27794;SDS011;15176;50.844;4.412;2023-02-18T06:04:04;6.50;;;2.88;;
27794;SDS011;15176;50.844;4.412;2023-02-18T06:06:29;10.90;;;2.97;;
27794;SDS011;15176;50.844;4.412;2023-02-18T06:08:55;10.63;;;2.95;;
27794;SDS011;15176;50.844;4.412;2023-02-18T06:11:21;9.10;;;2.67;;
27794;SDS011;15176;50.844;4.412;2023-02-18T06:13:47;9.13;;;2.70;;
27794;SDS011;15176;50.844;4.412;2023-02-18T06:16:12;10.65;;;2.65;;
27794;SDS011;15176;50.844;4.412;2023-02-18T06:18:39;12.68;;;2.90;;
27794;SDS011;15176;50.844;4.412;2023-02-18T06:21:05;9.32;;;2.42;;
27794;SDS011;15176;50.844;4.412;2023-02-18T06:23:31;10.80;;;2.60;;
27794;SDS011;15176;50.844;4.412;2023-02-18T06:25:58;10.40;;;2.35;;
27794;SDS011;15176;50.844;4.412;2023-02-18T06:28:23;15.05;;;2.70;;
27794;SDS011;15176;50.844;4.412;2023-02-18T06:30:49;10.93;;;2.08;;
27794;SDS011;15176;50.844;4.412;2023-02-18T06:33:15;9.77;;;2.28;;
27794;SDS011;15176;50.844;4.412;2023-02-18T06:35:41;13.00;;;1.92;;
27794;SDS011;15176;50.844;4.412;2023-02-18T06:38:07;11.48;;;2.45;;
27794;SDS011;15176;50.844;4.412;2023-02-18T06:40:33;10.70;;;2.13;;
27794;SDS011;15176;50.844;4.412;2023-02-18T06:42:58;11.70;;;2.10;;
27794;SDS011;15176;50.844;4.412;2023-02-18T06:45:24;11.98;;;1.90;;
27794;SDS011;15176;50.844;4.412;2023-02-18T06:47:50;20.10;;;2.80;;
27794;SDS011;15176;50.844;4.412;2023-02-18T06:50:15;11.80;;;2.38;;
27794;SDS011;15176;50.844;4.412;2023-02-18T06:52:43;13.43;;;2.33;;
27794;SDS011;15176;50.844;4.412;2023-02-18T06:55:09;18.45;;;2.70;;
27794;SDS011;15176;50.844;4.412;2023-02-18T06:57:35;12.20;;;1.85;;
27794;SDS011;15176;50.844;4.412;2023-02-18T07:00:00;13.07;;;2.55;;
27794;SDS011;15176;50.844;4.412;2023-02-18T07:02:26;15.93;;;2.10;;
27794;SDS011;15176;50.844;4.412;2023-02-18T07:04:52;12.80;;;2.15;;
27794;SDS011;15176;50.844;4.412;2023-02-18T07:07:21;16.33;;;2.80;;
27794;SDS011;15176;50.844;4.412;2023-02-18T07:09:46;12.93;;;2.20;;
27794;SDS011;15176;50.844;4.412;2023-02-18T07:12:12;13.13;;;2.42;;
27794;SDS011;15176;50.844;4.412;2023-02-18T07:14:38;12.73;;;2.10;;
27794;SDS011;15176;50.844;4.412;2023-02-18T07:17:03;12.63;;;2.45;;
27794;SDS011;15176;50.844;4.412;2023-02-18T07:19:29;16.40;;;2.67;;
27794;SDS011;15176;50.844;4.412;2023-02-18T07:21:55;15.45;;;2.55;;
27794;SDS011;15176;50.844;4.412;2023-02-18T07:24:22;11.98;;;2.33;;
27794;SDS011;15176;50.844;4.412;2023-02-18T07:26:48;17.45;;;2.83;;
27794;SDS011;15176;50.844;4.412;2023-02-18T07:29:14;16.63;;;3.10;;
27794;SDS011;15176;50.844;4.412;2023-02-18T07:31:40;20.80;;;2.42;;
27794;SDS011;15176;50.844;4.412;2023-02-18T07:34:05;15.75;;;2.97;;
27794;SDS011;15176;50.844;4.412;2023-02-18T07:36:31;17.17;;;2.55;;
27794;SDS011;15176;50.844;4.412;2023-02-18T07:38:57;19.42;;;2.75;;
27794;SDS011;15176;50.844;4.412;2023-02-18T07:41:22;14.48;;;2.17;;
27794;SDS011;15176;50.844;4.412;2023-02-18T07:43:48;13.50;;;2.35;;
27794;SDS011;15176;50.844;4.412;2023-02-18T07:46:14;13.85;;;2.60;;
27794;SDS011;15176;50.844;4.412;2023-02-18T07:48:40;15.48;;;2.42;;
27794;SDS011;15176;50.844;4.412;2023-02-18T07:51:07;15.57;;;2.63;;
27794;SDS011;15176;50.844;4.412;2023-02-18T07:53:33;11.95;;;2.42;;
27794;SDS011;15176;50.844;4.412;2023-02-18T07:55:59;16.20;;;2.97;;
27794;SDS011;15176;50.844;4.412;2023-02-18T07:58:27;16.33;;;2.50;;
27794;SDS011;15176;50.844;4.412;2023-02-18T08:00:54;16.75;;;2.75;;
27794;SDS011;15176;50.844;4.412;2023-02-18T08:03:22;12.68;;;2.30;;
27794;SDS011;15176;50.844;4.412;2023-02-18T08:05:57;16.13;;;2.20;;
27794;SDS011;15176;50.844;4.412;2023-02-18T08:08:24;15.20;;;2.40;;
27794;SDS011;15176;50.844;4.412;2023-02-18T08:10:52;12.75;;;2.53;;
27794;SDS011;15176;50.844;4.412;2023-02-18T08:13:19;16.90;;;2.78;;
27794;SDS011;15176;50.844;4.412;2023-02-18T08:15:44;11.25;;;2.10;;
27794;SDS011;15176;50.844;4.412;2023-02-18T08:18:17;13.40;;;2.35;;
27794;SDS011;15176;50.844;4.412;2023-02-18T08:20:45;13.25;;;2.20;;
27794;SDS011;15176;50.844;4.412;2023-02-18T08:23:12;11.80;;;2.08;;
27794;SDS011;15176;50.844;4.412;2023-02-18T08:25:38;12.38;;;1.90;;
27794;SDS011;15176;50.844;4.412;2023-02-18T08:28:05;10.25;;;1.73;;
27794;SDS011;15176;50.844;4.412;2023-02-18T08:30:32;13.82;;;1.98;;
27794;SDS011;15176;50.844;4.412;2023-02-18T08:32:57;12.93;;;2.05;;
27794;SDS011;15176;50.844;4.412;2023-02-18T08:35:23;12.43;;;1.90;;
27794;SDS011;15176;50.844;4.412;2023-02-18T08:37:49;16.13;;;2.50;;
27794;SDS011;15176;50.844;4.412;2023-02-18T08:40:14;12.50;;;1.92;;
27794;SDS011;15176;50.844;4.412;2023-02-18T08:42:40;13.93;;;2.00;;
27794;SDS011;15176;50.844;4.412;2023-02-18T08:45:06;10.00;;;1.98;;
27794;SDS011;15176;50.844;4.412;2023-02-18T08:47:32;11.23;;;1.92;;
27794;SDS011;15176;50.844;4.412;2023-02-18T08:49:58;8.48;;;1.83;;
27794;SDS011;15176;50.844;4.412;2023-02-18T08:52:24;10.65;;;1.88;;
27794;SDS011;15176;50.844;4.412;2023-02-18T08:54:50;12.48;;;2.28;;
27794;SDS011;15176;50.844;4.412;2023-02-18T08:57:16;13.10;;;1.80;;
27794;SDS011;15176;50.844;4.412;2023-02-18T08:59:43;14.00;;;1.90;;
27794;SDS011;15176;50.844;4.412;2023-02-18T09:02:12;7.65;;;1.55;;
27794;SDS011;15176;50.844;4.412;2023-02-18T09:04:38;12.40;;;1.88;;
27794;SDS011;15176;50.844;4.412;2023-02-18T09:07:04;10.07;;;1.80;;
27794;SDS011;15176;50.844;4.412;2023-02-18T09:09:30;10.73;;;1.60;;
27794;SDS011;15176;50.844;4.412;2023-02-18T09:11:56;13.25;;;1.98;;
27794;SDS011;15176;50.844;4.412;2023-02-18T09:14:23;9.23;;;1.75;;
27794;SDS011;15176;50.844;4.412;2023-02-18T09:16:50;11.02;;;1.63;;
27794;SDS011;15176;50.844;4.412;2023-02-18T09:19:16;9.70;;;1.77;;
27794;SDS011;15176;50.844;4.412;2023-02-18T09:21:42;10.20;;;1.67;;
27794;SDS011;15176;50.844;4.412;2023-02-18T09:24:09;7.95;;;1.60;;
27794;SDS011;15176;50.844;4.412;2023-02-18T09:26:35;9.55;;;1.73;;
27794;SDS011;15176;50.844;4.412;2023-02-18T09:29:01;10.05;;;1.45;;
27794;SDS011;15176;50.844;4.412;2023-02-18T09:31:26;11.98;;;1.77;;
27794;SDS011;15176;50.844;4.412;2023-02-18T09:33:55;8.52;;;1.48;;
27794;SDS011;15176;50.844;4.412;2023-02-18T09:36:23;9.93;;;1.77;;
27794;SDS011;15176;50.844;4.412;2023-02-18T09:38:49;12.60;;;2.17;;
27794;SDS011;15176;50.844;4.412;2023-02-18T09:44:51;12.23;;;1.58;;
27794;SDS011;15176;50.844;4.412;2023-02-18T09:49:56;10.35;;;1.50;;
27794;SDS011;15176;50.844;4.412;2023-02-18T09:52:28;6.57;;;1.42;;
27794;SDS011;15176;50.844;4.412;2023-02-18T09:55:00;11.25;;;1.83;;
27794;SDS011;15176;50.844;4.412;2023-02-18T09:57:46;10.82;;;2.20;;
27794;SDS011;15176;50.844;4.412;2023-02-18T10:00:20;9.02;;;2.03;;
27794;SDS011;15176;50.844;4.412;2023-02-18T10:02:57;10.57;;;1.92;;
27794;SDS011;15176;50.844;4.412;2023-02-18T10:05:32;9.63;;;1.70;;
27794;SDS011;15176;50.844;4.412;2023-02-18T10:08:06;9.98;;;1.90;;
27794;SDS011;15176;50.844;4.412;2023-02-18T10:10:48;8.07;;;1.65;;
27794;SDS011;15176;50.844;4.412;2023-02-18T10:13:18;8.32;;;2.00;;
27794;SDS011;15176;50.844;4.412;2023-02-18T10:15:52;7.20;;;1.52;;
27794;SDS011;15176;50.844;4.412;2023-02-18T10:20:46;10.02;;;2.30;;
27794;SDS011;15176;50.844;4.412;2023-02-18T10:23:15;10.07;;;2.50;;
27794;SDS011;15176;50.844;4.412;2023-02-18T10:25:43;7.78;;;1.90;;
27794;SDS011;15176;50.844;4.412;2023-02-18T10:28:11;8.80;;;1.90;;
27794;SDS011;15176;50.844;4.412;2023-02-18T10:30:39;10.20;;;1.90;;
27794;SDS011;15176;50.844;4.412;2023-02-18T10:35:56;7.50;;;1.58;;
27794;SDS011;15176;50.844;4.412;2023-02-18T10:50:01;14.02;;;2.65;;
27794;SDS011;15176;50.844;4.412;2023-02-18T10:52:51;9.38;;;2.40;;
27794;SDS011;15176;50.844;4.412;2023-02-18T10:55:20;17.77;;;3.13;;
27794;SDS011;15176;50.844;4.412;2023-02-18T11:00:50;12.43;;;2.83;;
27794;SDS011;15176;50.844;4.412;2023-02-18T11:03:20;10.95;;;2.63;;
27794;SDS011;15176;50.844;4.412;2023-02-18T11:05:49;9.23;;;2.20;;
27794;SDS011;15176;50.844;4.412;2023-02-18T11:08:25;6.93;;;2.30;;
27794;SDS011;15176;50.844;4.412;2023-02-18T11:10:53;7.88;;;1.92;;
27794;SDS011;15176;50.844;4.412;2023-02-18T11:13:27;8.68;;;2.00;;
27794;SDS011;15176;50.844;4.412;2023-02-18T11:15:59;9.80;;;2.47;;
27794;SDS011;15176;50.844;4.412;2023-02-18T11:18:29;10.05;;;2.35;;
27794;SDS011;15176;50.844;4.412;2023-02-18T11:21:30;6.55;;;2.40;;
27794;SDS011;15176;50.844;4.412;2023-02-18T11:24:08;8.65;;;2.00;;
27794;SDS011;15176;50.844;4.412;2023-02-18T11:26:39;9.23;;;2.83;;
27794;SDS011;15176;50.844;4.412;2023-02-18T11:29:07;11.95;;;3.45;;
27794;SDS011;15176;50.844;4.412;2023-02-18T11:31:46;8.75;;;2.10;;
27794;SDS011;15176;50.844;4.412;2023-02-18T11:34:21;7.35;;;1.88;;
27794;SDS011;15176;50.844;4.412;2023-02-18T11:36:52;8.85;;;2.17;;
27794;SDS011;15176;50.844;4.412;2023-02-18T11:39:26;9.15;;;2.65;;
27794;SDS011;15176;50.844;4.412;2023-02-18T11:42:03;11.77;;;2.25;;
27794;SDS011;15176;50.844;4.412;2023-02-18T11:44:36;13.70;;;2.97;;
27794;SDS011;15176;50.844;4.412;2023-02-18T11:49:38;10.15;;;1.98;;
27794;SDS011;15176;50.844;4.412;2023-02-18T11:54:42;11.18;;;2.67;;
27794;SDS011;15176;50.844;4.412;2023-02-18T11:57:38;13.07;;;3.50;;
27794;SDS011;15176;50.844;4.412;2023-02-18T12:00:23;10.23;;;2.03;;
27794;SDS011;15176;50.844;4.412;2023-02-18T12:03:00;11.10;;;2.45;;
27794;SDS011;15176;50.844;4.412;2023-02-18T12:05:29;8.70;;;2.15;;
27794;SDS011;15176;50.844;4.412;2023-02-18T12:07:58;8.63;;;2.40;;
27794;SDS011;15176;50.844;4.412;2023-02-18T12:10:39;8.18;;;2.22;;
27794;SDS011;15176;50.844;4.412;2023-02-18T12:24:54;12.95;;;2.47;;
27794;SDS011;15176;50.844;4.412;2023-02-18T12:27:42;22.58;;;2.80;;
27794;SDS011;15176;50.844;4.412;2023-02-18T12:30:31;14.65;;;2.70;;
27794;SDS011;15176;50.844;4.412;2023-02-18T12:33:14;8.07;;;2.15;;
27794;SDS011;15176;50.844;4.412;2023-02-18T12:35:58;11.43;;;2.20;;
27794;SDS011;15176;50.844;4.412;2023-02-18T12:41:55;12.20;;;2.53;;
27794;SDS011;15176;50.844;4.412;2023-02-18T13:12:30;8.70;;;2.20;;
27794;SDS011;15176;50.844;4.412;2023-02-18T13:17:47;12.90;;;2.38;;
27794;SDS011;15176;50.844;4.412;2023-02-18T13:23:20;9.25;;;2.15;;
27794;SDS011;15176;50.844;4.412;2023-02-18T13:25:49;12.68;;;2.65;;
27794;SDS011;15176;50.844;4.412;2023-02-18T13:28:25;13.13;;;3.05;;
27794;SDS011;15176;50.844;4.412;2023-02-18T13:31:31;13.05;;;2.50;;
27794;SDS011;15176;50.844;4.412;2023-02-18T13:34:15;12.05;;;2.53;;
27794;SDS011;15176;50.844;4.412;2023-02-18T13:39:48;11.13;;;2.40;;
27794;SDS011;15176;50.844;4.412;2023-02-18T13:45:43;11.57;;;2.70;;
27794;SDS011;15176;50.844;4.412;2023-02-18T13:47:51;11.48;;;2.40;;
27794;SDS011;15176;50.844;4.412;2023-02-18T13:58:03;13.13;;;2.90;;
27794;SDS011;15176;50.844;4.412;2023-02-18T14:00:36;11.95;;;2.88;;
27794;SDS011;15176;50.844;4.412;2023-02-18T14:06:16;14.60;;;3.78;;
27794;SDS011;15176;50.844;4.412;2023-02-18T14:08:43;14.90;;;2.90;;
27794;SDS011;15176;50.844;4.412;2023-02-18T14:13:39;13.77;;;2.67;;
27794;SDS011;15176;50.844;4.412;2023-02-18T14:16:05;13.02;;;2.67;;
27794;SDS011;15176;50.844;4.412;2023-02-18T14:21:16;9.60;;;2.53;;
27794;SDS011;15176;50.844;4.412;2023-02-18T14:26:22;10.80;;;2.95;;
27794;SDS011;15176;50.844;4.412;2023-02-18T14:28:55;9.75;;;2.92;;
27794;SDS011;15176;50.844;4.412;2023-02-18T14:34:30;13.00;;;3.22;;
27794;SDS011;15176;50.844;4.412;2023-02-18T14:45:39;11.93;;;2.38;;
27794;SDS011;15176;50.844;4.412;2023-02-18T14:50:50;11.38;;;2.63;;
27794;SDS011;15176;50.844;4.412;2023-02-18T14:53:21;10.80;;;2.60;;
27794;SDS011;15176;50.844;4.412;2023-02-18T14:55:50;13.82;;;2.70;;
27794;SDS011;15176;50.844;4.412;2023-02-18T14:58:27;8.05;;;2.97;;
27794;SDS011;15176;50.844;4.412;2023-02-18T15:03:43;14.52;;;3.05;;
27794;SDS011;15176;50.844;4.412;2023-02-18T15:06:31;7.30;;;2.80;;
27794;SDS011;15176;50.844;4.412;2023-02-18T15:11:46;8.90;;;2.20;;
27794;SDS011;15176;50.844;4.412;2023-02-18T15:14:16;13.32;;;3.08;;
27794;SDS011;15176;50.844;4.412;2023-02-18T15:16:44;12.20;;;3.15;;
27794;SDS011;15176;50.844;4.412;2023-02-18T15:19:14;14.07;;;2.50;;
27794;SDS011;15176;50.844;4.412;2023-02-18T15:21:44;11.10;;;3.45;;
27794;SDS011;15176;50.844;4.412;2023-02-18T15:26:48;10.93;;;2.53;;
27794;SDS011;15176;50.844;4.412;2023-02-18T15:29:23;8.10;;;2.80;;
27794;SDS011;15176;50.844;4.412;2023-02-18T15:31:51;8.57;;;2.83;;
27794;SDS011;15176;50.844;4.412;2023-02-18T15:36:53;15.93;;;3.10;;
27794;SDS011;15176;50.844;4.412;2023-02-18T15:39:21;11.32;;;3.05;;
27794;SDS011;15176;50.844;4.412;2023-02-18T15:41:55;9.20;;;2.88;;
27794;SDS011;15176;50.844;4.412;2023-02-18T15:44:26;8.38;;;2.53;;
27794;SDS011;15176;50.844;4.412;2023-02-18T15:46:54;9.77;;;3.10;;
27794;SDS011;15176;50.844;4.412;2023-02-18T15:49:29;19.23;;;3.17;;
27794;SDS011;15176;50.844;4.412;2023-02-18T15:51:56;13.32;;;3.10;;
27794;SDS011;15176;50.844;4.412;2023-02-18T15:54:24;12.60;;;3.03;;
27794;SDS011;15176;50.844;4.412;2023-02-18T15:56:51;10.05;;;3.05;;
27794;SDS011;15176;50.844;4.412;2023-02-18T15:59:20;11.02;;;3.40;;
27794;SDS011;15176;50.844;4.412;2023-02-18T16:01:51;9.30;;;3.50;;
27794;SDS011;15176;50.844;4.412;2023-02-18T16:04:40;9.73;;;3.40;;
27794;SDS011;15176;50.844;4.412;2023-02-18T16:12:46;14.07;;;3.10;;
27794;SDS011;15176;50.844;4.412;2023-02-18T16:15:28;11.65;;;2.83;;
27794;SDS011;15176;50.844;4.412;2023-02-18T16:17:59;12.10;;;3.47;;
27794;SDS011;15176;50.844;4.412;2023-02-18T16:20:29;12.27;;;3.20;;
27794;SDS011;15176;50.844;4.412;2023-02-18T16:23:01;10.63;;;2.90;;
27794;SDS011;15176;50.844;4.412;2023-02-18T16:28:22;10.60;;;2.92;;
27794;SDS011;15176;50.844;4.412;2023-02-18T16:30:56;10.40;;;3.30;;
27794;SDS011;15176;50.844;4.412;2023-02-18T16:33:22;8.98;;;3.03;;
27794;SDS011;15176;50.844;4.412;2023-02-18T16:35:47;10.40;;;2.80;;
27794;SDS011;15176;50.844;4.412;2023-02-18T16:38:21;8.38;;;2.92;;
27794;SDS011;15176;50.844;4.412;2023-02-18T16:40:49;9.32;;;2.60;;
27794;SDS011;15176;50.844;4.412;2023-02-18T16:43:19;10.38;;;2.47;;
27794;SDS011;15176;50.844;4.412;2023-02-18T16:45:46;7.15;;;2.50;;
27794;SDS011;15176;50.844;4.412;2023-02-18T16:48:16;10.50;;;3.38;;
27794;SDS011;15176;50.844;4.412;2023-02-18T16:51:11;9.35;;;3.25;;
27794;SDS011;15176;50.844;4.412;2023-02-18T16:53:40;11.02;;;4.43;;
27794;SDS011;15176;50.844;4.412;2023-02-18T16:56:20;9.77;;;3.08;;
27794;SDS011;15176;50.844;4.412;2023-02-18T16:58:47;8.73;;;3.30;;
27794;SDS011;15176;50.844;4.412;2023-02-18T17:01:37;10.77;;;3.00;;
27794;SDS011;15176;50.844;4.412;2023-02-18T17:04:13;7.72;;;3.10;;
27794;SDS011;15176;50.844;4.412;2023-02-18T17:06:41;11.63;;;4.60;;
27794;SDS011;15176;50.844;4.412;2023-02-18T17:09:15;11.77;;;4.63;;
27794;SDS011;15176;50.844;4.412;2023-02-18T17:11:44;13.02;;;4.60;;
27794;SDS011;15176;50.844;4.412;2023-02-18T17:14:13;10.93;;;3.97;;
27794;SDS011;15176;50.844;4.412;2023-02-18T17:16:42;9.77;;;3.80;;
27794;SDS011;15176;50.844;4.412;2023-02-18T17:19:08;12.32;;;3.70;;
27794;SDS011;15176;50.844;4.412;2023-02-18T17:21:34;22.08;;;12.75;;
27794;SDS011;15176;50.844;4.412;2023-02-18T17:23:59;12.52;;;5.93;;
27794;SDS011;15176;50.844;4.412;2023-02-18T17:26:26;19.40;;;12.00;;
27794;SDS011;15176;50.844;4.412;2023-02-18T17:28:53;9.55;;;5.53;;
27794;SDS011;15176;50.844;4.412;2023-02-18T17:31:27;13.32;;;6.30;;
27794;SDS011;15176;50.844;4.412;2023-02-18T17:33:57;12.13;;;5.28;;
27794;SDS011;15176;50.844;4.412;2023-02-18T17:36:25;9.38;;;4.47;;
27794;SDS011;15176;50.844;4.412;2023-02-18T17:38:51;10.38;;;4.10;;
27794;SDS011;15176;50.844;4.412;2023-02-18T17:41:17;10.75;;;4.28;;
27794;SDS011;15176;50.844;4.412;2023-02-18T17:43:43;13.10;;;3.78;;
27794;SDS011;15176;50.844;4.412;2023-02-18T17:46:12;8.02;;;3.58;;
27794;SDS011;15176;50.844;4.412;2023-02-18T17:48:42;9.88;;;4.40;;
27794;SDS011;15176;50.844;4.412;2023-02-18T17:51:13;13.98;;;4.60;;
27794;SDS011;15176;50.844;4.412;2023-02-18T17:53:50;12.95;;;5.63;;
27794;SDS011;15176;50.844;4.412;2023-02-18T17:56:16;14.93;;;5.47;;